Time;durP1;ratioP1;P1;durP2;ratioP2;P2;SDS_P1;SDS_P2;PMS_P1;PMS_P2;Temp;Humidity;BMP_temperature;BMP_pressure;BME280_temperature;BME280_humidity;BME280_pressure;Samples;Min_cycle;Max_cycle;Signal;HPM_P1;HPM_P2
2022/08/20 00:00:27;;;;;;;10.13;6.55;;;23.70;97.10;;;;;;5033926;28;20029;-87
2022/08/20 00:03:00;;;;;;;9.70;6.88;;;23.70;97.10;;;;;;5056628;28;20037;-87
2022/08/20 00:05:38;;;;;;;8.68;6.53;;;23.70;97.20;;;;;;5065232;28;20036;-87
2022/08/20 00:08:05;;;;;;;7.53;6.63;;;23.70;97.20;;;;;;5068075;28;20013;-87
2022/08/20 00:10:32;;;;;;;9.18;7.20;;;23.70;97.20;;;;;;5056574;28;20116;-85
2022/08/20 00:12:58;;;;;;;8.73;7.13;;;23.70;97.30;;;;;;5027238;28;20074;-86
2022/08/20 00:15:28;;;;;;;8.90;7.57;;;23.70;97.30;;;;;;5037374;28;20381;-86
2022/08/20 00:17:56;;;;;;;8.48;6.97;;;23.60;97.40;;;;;;5054520;28;20017;-85
2022/08/20 00:20:28;;;;;;;9.32;7.07;;;23.60;97.40;;;;;;5054838;28;20079;-86
2022/08/20 00:22:55;;;;;;;10.20;7.65;;;23.60;97.40;;;;;;5060976;28;20079;-86
2022/08/20 00:25:22;;;;;;;9.35;7.60;;;23.60;97.50;;;;;;5043428;28;20052;-86
2022/08/20 00:27:47;;;;;;;10.48;7.65;;;23.60;97.50;;;;;;5041981;28;20522;-86
2022/08/20 00:30:14;;;;;;;10.98;7.60;;;23.60;97.60;;;;;;5047067;28;20025;-86
2022/08/20 00:33:02;;;;;;;10.43;7.88;;;23.60;97.60;;;;;;5078893;28;20046;-85
2022/08/20 00:35:30;;;;;;;9.95;7.97;;;23.50;97.60;;;;;;5072367;28;20028;-88
2022/08/20 00:37:56;;;;;;;10.82;8.00;;;23.50;97.70;;;;;;5055150;28;20016;-86
2022/08/20 00:40:27;;;;;;;10.32;7.95;;;23.50;97.80;;;;;;5047656;28;20030;-86
2022/08/20 00:42:57;;;;;;;11.13;8.77;;;23.50;97.80;;;;;;5055559;28;20047;-86
2022/08/20 00:45:25;;;;;;;9.80;7.93;;;23.50;97.90;;;;;;5053196;28;20028;-86
2022/08/20 00:47:54;;;;;;;12.23;8.43;;;23.50;97.90;;;;;;5066967;28;20028;-86
2022/08/20 00:50:25;;;;;;;10.23;8.88;;;23.50;98.00;;;;;;5053184;28;20067;-86
2022/08/20 00:52:52;;;;;;;11.02;8.27;;;23.50;98.10;;;;;;5068861;28;20066;-86
2022/08/20 00:55:23;;;;;;;11.63;8.90;;;23.40;98.10;;;;;;5060280;28;20069;-85
2022/08/20 00:57:55;;;;;;;12.48;9.43;;;23.50;98.20;;;;;;5060467;28;20101;-89
2022/08/20 01:00:29;;;;;;;10.55;8.85;;;23.40;98.20;;;;;;5046668;28;20017;-86
2022/08/20 01:02:55;;;;;;;11.45;8.75;;;23.40;98.30;;;;;;5059400;28;20059;-86
2022/08/20 01:05:22;;;;;;;11.98;9.43;;;23.40;98.40;;;;;;5053316;28;20031;-86
2022/08/20 01:07:52;;;;;;;11.30;9.25;;;23.40;98.40;;;;;;5036831;28;20052;-86
2022/08/20 01:10:22;;;;;;;12.50;10.10;;;23.40;98.50;;;;;;5053050;28;20033;-86
2022/08/20 01:12:50;;;;;;;12.02;10.68;;;23.40;98.50;;;;;;5054313;28;20447;-85
2022/08/20 01:15:21;;;;;;;14.25;10.30;;;23.40;98.60;;;;;;5041260;28;20018;-87
2022/08/20 01:17:50;;;;;;;13.73;11.18;;;23.40;98.70;;;;;;5068963;28;20021;-87
2022/08/20 01:20:20;;;;;;;13.95;10.52;;;23.40;98.80;;;;;;5064473;28;20017;-86
2022/08/20 01:23:33;;;;;;;13.32;10.65;;;23.40;98.90;;;;;;5052417;28;20099;-85
2022/08/20 01:26:22;;;;;;;13.10;10.40;;;23.30;98.90;;;;;;5039017;28;20128;-87
2022/08/20 01:29:00;;;;;;;14.50;11.45;;;23.30;99.10;;;;;;5054103;28;20025;-86
2022/08/20 01:31:29;;;;;;;10.25;8.73;;;23.30;99.20;;;;;;5052212;28;20020;-87
2022/08/20 01:33:57;;;;;;;9.05;7.25;;;23.30;99.20;;;;;;5052771;28;20362;-86
2022/08/20 01:36:29;;;;;;;8.90;6.38;;;23.30;99.20;;;;;;5053049;28;20100;-87
2022/08/20 01:38:55;;;;;;;8.57;5.75;;;23.30;99.20;;;;;;5054227;28;20513;-86
2022/08/20 01:41:48;;;;;;;11.10;6.85;;;23.30;99.20;;;;;;5053018;28;20362;-86
2022/08/20 01:44:14;;;;;;;10.35;7.10;;;23.20;99.10;;;;;;5053652;28;20040;-86
2022/08/20 01:46:42;;;;;;;9.07;7.20;;;23.20;99.10;;;;;;5056045;28;20029;-86
2022/08/20 01:49:18;;;;;;;9.48;7.35;;;23.20;99.00;;;;;;5064698;28;20036;-86
2022/08/20 01:51:44;;;;;;;9.98;7.57;;;23.20;99.00;;;;;;5052793;28;20029;-89
2022/08/20 01:54:10;;;;;;;10.73;8.60;;;23.10;99.00;;;;;;5036090;28;20075;-88
2022/08/20 01:56:54;;;;;;;10.23;7.85;;;23.10;99.30;;;;;;5055883;28;20456;-87
2022/08/20 01:59:20;;;;;;;12.73;10.02;;;23.10;99.20;;;;;;5052863;28;20063;-87
2022/08/20 02:01:45;;;;;;;12.95;10.30;;;23.00;99.20;;;;;;5052709;28;20033;-87
2022/08/20 02:04:12;;;;;;;14.55;11.18;;;23.00;99.40;;;;;;5035909;28;20041;-86
2022/08/20 02:06:50;;;;;;;14.88;10.40;;;23.00;99.40;;;;;;5036274;28;20033;-85
2022/08/20 02:09:17;;;;;;;13.45;11.18;;;23.10;99.60;;;;;;5052107;28;20017;-87
2022/08/20 02:11:43;;;;;;;15.52;11.02;;;23.00;99.60;;;;;;5052072;28;20029;-87
2022/08/20 02:14:09;;;;;;;15.70;11.88;;;23.00;99.70;;;;;;5052547;28;20021;-86
2022/08/20 02:16:37;;;;;;;15.15;12.20;;;23.00;99.80;;;;;;5055179;28;20021;-87
2022/08/20 02:19:16;;;;;;;17.40;12.55;;;23.00;99.90;;;;;;5054308;28;20028;-87
2022/08/20 02:21:46;;;;;;;17.30;13.13;;;23.00;99.90;;;;;;5066721;28;20055;-86
2022/08/20 02:24:12;;;;;;;17.38;11.55;;;22.90;99.90;;;;;;5058174;28;20448;-87
2022/08/20 02:26:38;;;;;;;12.60;10.77;;;22.90;99.90;;;;;;5071761;28;20021;-87
2022/08/20 02:29:07;;;;;;;12.13;10.52;;;22.90;99.90;;;;;;5070763;28;20041;-87
2022/08/20 02:31:35;;;;;;;13.57;9.98;;;22.90;99.90;;;;;;5053104;28;20039;-87
2022/08/20 02:34:02;;;;;;;14.73;11.88;;;22.90;99.90;;;;;;5053265;28;20028;-87
2022/08/20 02:36:28;;;;;;;12.48;10.63;;;22.90;99.90;;;;;;5055658;28;20025;-86
2022/08/20 02:38:54;;;;;;;15.00;11.43;;;22.80;99.90;;;;;;5069639;28;20035;-89
2022/08/20 02:41:20;;;;;;;12.85;9.85;;;22.90;99.90;;;;;;5055889;28;20052;-88
2022/08/20 02:43:47;;;;;;;14.48;10.57;;;22.80;99.90;;;;;;5039487;28;20025;-87
2022/08/20 02:46:14;;;;;;;13.18;10.88;;;22.80;99.90;;;;;;5039448;28;20025;-87
2022/08/20 02:48:40;;;;;;;15.20;11.70;;;22.80;99.90;;;;;;5038967;28;20025;-87
2022/08/20 02:51:07;;;;;;;15.65;11.07;;;22.80;99.90;;;;;;5056133;28;20021;-87
2022/08/20 02:53:36;;;;;;;14.40;10.88;;;22.80;99.90;;;;;;5064281;28;20285;-87
2022/08/20 02:56:03;;;;;;;13.38;10.48;;;22.80;99.90;;;;;;5056890;28;20025;-87
2022/08/20 02:58:29;;;;;;;12.52;9.95;;;22.80;99.90;;;;;;5069651;28;20027;-87
2022/08/20 03:00:55;;;;;;;10.38;8.70;;;22.80;99.90;;;;;;5058162;28;20029;-87
2022/08/20 03:03:23;;;;;;;8.52;6.40;;;22.80;99.90;;;;;;5070820;28;20025;-87
2022/08/20 03:05:54;;;;;;;10.90;8.35;;;22.80;99.90;;;;;;5055505;28;20017;-87
2022/08/20 03:08:20;;;;;;;11.32;8.07;;;22.80;99.90;;;;;;5055833;28;20032;-87
2022/08/20 03:10:47;;;;;;;8.50;6.13;;;22.80;99.90;;;;;;5048645;28;20045;-86
2022/08/20 03:13:14;;;;;;;9.30;7.22;;;22.80;99.90;;;;;;5031023;28;20039;-86
2022/08/20 03:15:43;;;;;;;8.88;6.90;;;22.80;99.90;;;;;;5068620;28;20359;-87
2022/08/20 03:18:10;;;;;;;8.70;5.88;;;22.80;99.90;;;;;;5066953;28;20013;-86
2022/08/20 03:20:36;;;;;;;8.95;6.65;;;22.80;99.90;;;;;;5054607;28;20079;-87
2022/08/20 03:23:02;;;;;;;8.95;6.15;;;22.70;99.90;;;;;;5054706;28;20072;-87
2022/08/20 03:25:28;;;;;;;7.93;5.53;;;22.70;99.90;;;;;;5054263;28;20029;-88
2022/08/20 03:27:54;;;;;;;8.65;6.25;;;22.70;99.90;;;;;;5054778;28;20032;-87
2022/08/20 03:30:22;;;;;;;13.13;6.60;;;22.70;99.90;;;;;;5056147;28;20464;-87
2022/08/20 03:32:48;;;;;;;9.35;6.97;;;22.70;99.90;;;;;;5067968;28;20036;-87
2022/08/20 03:35:17;;;;;;;13.50;9.35;;;22.70;99.90;;;;;;5054431;28;20119;-86
2022/08/20 03:37:43;;;;;;;12.52;8.88;;;22.70;99.90;;;;;;5059730;28;20037;-86
2022/08/20 03:40:14;;;;;;;10.93;7.88;;;22.70;99.90;;;;;;5046934;28;20082;-86
2022/08/20 03:42:40;;;;;;;11.68;7.78;;;22.60;99.90;;;;;;5058585;28;20036;-86
2022/08/20 03:45:07;;;;;;;11.02;7.13;;;22.60;99.90;;;;;;5064643;28;20039;-86
2022/08/20 03:47:33;;;;;;;11.60;6.80;;;22.60;99.90;;;;;;5055103;28;20393;-87
2022/08/20 03:50:00;;;;;;;8.75;6.07;;;22.60;99.90;;;;;;5066679;28;20025;-87
2022/08/20 03:52:28;;;;;;;8.05;5.93;;;22.60;99.90;;;;;;5054762;28;20029;-87
2022/08/20 03:54:54;;;;;;;7.60;5.95;;;22.60;99.90;;;;;;5055052;28;20024;-86
2022/08/20 03:57:19;;;;;;;10.70;6.90;;;22.50;99.90;;;;;;5076635;28;20120;-85
2022/08/20 03:59:45;;;;;;;9.27;6.18;;;22.50;99.90;;;;;;5081462;28;20044;-85
2022/08/20 04:02:11;;;;;;;10.13;6.22;;;22.50;99.90;;;;;;5075677;28;20040;-86
2022/08/20 04:04:39;;;;;;;8.75;6.10;;;22.50;99.90;;;;;;5058109;28;20516;-87
2022/08/20 04:07:19;;;;;;;8.35;4.97;;;22.50;99.90;;;;;;5055926;28;20358;-86
2022/08/20 04:09:45;;;;;;;5.75;4.07;;;22.50;99.90;;;;;;5057505;28;20029;-86
2022/08/20 04:12:14;;;;;;;4.50;3.50;;;22.50;99.90;;;;;;5085330;28;20545;-85
2022/08/20 04:14:39;;;;;;;5.90;3.72;;;22.50;99.90;;;;;;5067187;28;20044;-86
2022/08/20 04:17:07;;;;;;;7.07;4.00;;;22.50;99.90;;;;;;5065708;28;20020;-85
2022/08/20 04:19:33;;;;;;;7.03;3.92;;;22.50;99.90;;;;;;5096037;28;20048;-90
2022/08/20 04:21:59;;;;;;;7.15;4.50;;;22.40;99.90;;;;;;5096004;28;20032;-89
2022/08/20 04:24:26;;;;;;;7.05;4.50;;;22.50;99.90;;;;;;5096610;28;20000;-86
2022/08/20 04:26:52;;;;;;;7.28;4.93;;;22.40;99.90;;;;;;5043047;28;20385;-86
2022/08/20 04:29:18;;;;;;;11.40;5.32;;;22.40;99.90;;;;;;5065087;28;20040;-87
2022/08/20 04:31:43;;;;;;;8.85;5.70;;;22.40;99.90;;;;;;5053074;28;20103;-86
2022/08/20 04:34:09;;;;;;;8.63;5.18;;;22.40;99.90;;;;;;5053473;28;20525;-86
2022/08/20 04:36:35;;;;;;;9.02;5.30;;;22.40;99.90;;;;;;5065910;28;20151;-89
2022/08/20 04:39:01;;;;;;;8.55;5.43;;;22.40;99.90;;;;;;5056946;28;20103;-87
2022/08/20 04:41:27;;;;;;;8.32;4.93;;;22.40;99.90;;;;;;5046393;28;20127;-87
2022/08/20 04:43:54;;;;;;;9.52;5.32;;;22.40;99.90;;;;;;5053421;28;20029;-87
2022/08/20 04:46:22;;;;;;;6.82;5.22;;;22.40;99.90;;;;;;5036988;28;20096;-86
2022/08/20 04:48:48;;;;;;;9.27;5.03;;;22.40;99.90;;;;;;5067427;28;20490;-87
2022/08/20 04:51:13;;;;;;;8.27;5.38;;;22.30;99.90;;;;;;5036774;28;20037;-87
2022/08/20 04:53:40;;;;;;;8.88;5.18;;;22.40;99.90;;;;;;5065912;28;20035;-87
2022/08/20 04:56:06;;;;;;;8.98;5.35;;;22.30;99.90;;;;;;5034386;28;20096;-87
2022/08/20 04:58:37;;;;;;;8.43;5.35;;;22.30;99.90;;;;;;5027350;28;20423;-88
2022/08/20 05:01:09;;;;;;;7.57;5.25;;;22.30;99.90;;;;;;5071013;28;20028;-87
2022/08/20 05:03:38;;;;;;;7.47;5.18;;;22.30;99.90;;;;;;5066276;28;20480;-87
2022/08/20 05:06:05;;;;;;;8.75;5.00;;;22.30;99.90;;;;;;5073606;28;20055;-87
2022/08/20 05:08:32;;;;;;;9.55;5.78;;;22.30;99.90;;;;;;5092217;28;20024;-87
2022/08/20 05:10:59;;;;;;;7.78;5.25;;;22.30;99.90;;;;;;5076062;28;20387;-89
2022/08/20 05:13:25;;;;;;;8.25;5.13;;;22.30;99.90;;;;;;5071981;28;20065;-88
2022/08/20 05:15:52;;;;;;;8.75;5.05;;;22.30;99.90;;;;;;5068857;28;20098;-89
2022/08/20 05:18:20;;;;;;;8.18;5.63;;;22.30;99.90;;;;;;5086434;28;20453;-88
2022/08/20 05:20:47;;;;;;;8.82;5.50;;;22.30;99.90;;;;;;5070746;28;20095;-89
2022/08/20 05:23:15;;;;;;;7.55;5.32;;;22.30;99.90;;;;;;5085415;28;20100;-88
2022/08/20 05:25:43;;;;;;;8.23;5.40;;;22.30;99.90;;;;;;5095376;28;20005;-96
2022/08/20 05:28:15;;;;;;;9.45;6.18;;;22.30;99.90;;;;;;5096087;28;20091;-90
2022/08/20 05:30:44;;;;;;;8.60;5.45;;;22.30;99.90;;;;;;5097175;28;20016;-90
2022/08/20 05:33:12;;;;;;;8.75;4.85;;;22.30;99.90;;;;;;5097329;28;20063;-88
2022/08/20 05:35:38;;;;;;;9.88;4.53;;;22.30;99.90;;;;;;5088849;28;20032;-87
2022/08/20 05:38:08;;;;;;;7.88;4.47;;;22.30;99.90;;;;;;5060627;28;20035;-91
2022/08/20 05:40:39;;;;;;;6.75;4.10;;;22.20;99.90;;;;;;5077278;28;20041;-87
2022/08/20 05:43:04;;;;;;;5.03;3.47;;;22.20;99.90;;;;;;5090538;28;20017;-87
2022/08/20 05:45:32;;;;;;;7.05;3.60;;;22.20;99.90;;;;;;5056311;28;20044;-87
2022/08/20 05:51:12;;;;;;;5.00;3.35;;;22.20;99.90;;;;;;5035121;28;20040;-86
2022/08/20 05:57:02;;;;;;;5.85;3.25;;;22.10;99.90;;;;;;5056918;28;20025;-86
2022/08/20 05:59:28;;;;;;;6.85;2.90;;;22.10;99.90;;;;;;5056479;28;20465;-86
2022/08/20 06:01:54;;;;;;;5.22;3.25;;;22.10;99.90;;;;;;5038964;28;20040;-86
2022/08/20 06:04:30;;;;;;;5.28;2.60;;;22.00;99.90;;;;;;5039465;28;20025;-86
2022/08/20 06:07:05;;;;;;;6.03;3.08;;;22.00;99.90;;;;;;5040295;28;20116;-87
2022/08/20 06:09:32;;;;;;;5.50;3.00;;;22.00;99.90;;;;;;5055979;28;20024;-87
2022/08/20 06:11:59;;;;;;;5.93;3.45;;;22.00;99.90;;;;;;5058507;28;20029;-87
2022/08/20 06:14:25;;;;;;;6.82;3.25;;;21.90;99.90;;;;;;5041710;28;20095;-86
2022/08/20 06:16:51;;;;;;;5.95;3.40;;;21.90;99.90;;;;;;5058356;28;20029;-87
2022/08/20 06:19:16;;;;;;;6.22;3.50;;;21.90;99.90;;;;;;5036507;28;20026;-86
2022/08/20 06:25:06;;;;;;;6.10;3.53;;;21.90;99.90;;;;;;5055799;28;20499;-86
2022/08/20 06:27:32;;;;;;;4.60;3.17;;;21.90;99.90;;;;;;5057184;28;20427;-86
2022/08/20 06:29:58;;;;;;;6.25;3.38;;;21.90;99.90;;;;;;5058328;28;20372;-86
2022/08/20 06:32:25;;;;;;;6.57;3.45;;;21.90;99.90;;;;;;5057394;28;20041;-87
2022/08/20 06:34:51;;;;;;;5.78;3.35;;;21.90;99.90;;;;;;5056021;28;20033;-87
2022/08/20 06:37:26;;;;;;;6.50;3.30;;;21.90;99.90;;;;;;5057390;28;20021;-86
2022/08/20 06:39:52;;;;;;;5.72;2.97;;;21.90;99.90;;;;;;5067229;28;20029;-86
2022/08/20 06:42:19;;;;;;;8.20;3.40;;;21.90;99.90;;;;;;5055650;28;20099;-86
2022/08/20 06:44:48;;;;;;;7.43;3.20;;;22.00;99.90;;;;;;5035807;28;20088;-73
2022/08/20 06:47:16;;;;;;;5.47;3.20;;;21.90;99.90;;;;;;5054674;28;20036;-72
2022/08/20 06:49:42;;;;;;;9.18;3.83;;;22.00;99.90;;;;;;5055633;28;20021;-72
2022/08/20 06:52:08;;;;;;;8.23;3.85;;;22.00;99.90;;;;;;5054999;28;20032;-87
2022/08/20 06:54:34;;;;;;;7.88;4.10;;;22.00;99.90;;;;;;5055591;28;20385;-86
2022/08/20 06:57:03;;;;;;;7.63;3.40;;;22.00;99.90;;;;;;5056530;28;20361;-86
2022/08/20 06:59:29;;;;;;;7.28;3.30;;;22.00;99.90;;;;;;5039566;28;20107;-87
2022/08/20 07:01:55;;;;;;;6.65;3.63;;;21.90;99.90;;;;;;5038746;28;20433;-86
2022/08/20 07:04:22;;;;;;;8.63;3.53;;;22.00;99.90;;;;;;5055401;28;20025;-87
2022/08/20 07:13:57;;;;;;;6.68;3.50;;;21.90;99.90;;;;;;5076025;28;20039;-87
2022/08/20 07:16:23;;;;;;;5.95;3.28;;;21.90;99.90;;;;;;5058849;28;20159;-87
2022/08/20 07:18:49;;;;;;;6.45;3.10;;;21.90;99.90;;;;;;5093490;28;20488;-87
2022/08/20 07:24:37;;;;;;;6.22;3.13;;;22.00;99.90;;;;;;5076647;28;20019;-87
2022/08/20 07:27:03;;;;;;;7.60;3.42;;;22.00;99.90;;;;;;5041529;28;20081;-88
2022/08/20 07:32:33;;;;;;;6.47;3.17;;;22.00;99.90;;;;;;5076532;28;20044;-87
2022/08/20 07:38:24;;;;;;;8.32;3.40;;;22.10;99.90;;;;;;5076614;28;20069;-86
2022/08/20 07:41:01;;;;;;;7.57;3.05;;;22.10;99.90;;;;;;5076925;28;20099;-88
2022/08/20 07:43:29;;;;;;;8.32;2.97;;;22.10;99.90;;;;;;5058424;28;20476;-87
2022/08/20 07:45:59;;;;;;;8.35;3.15;;;22.10;99.90;;;;;;5058782;28;20131;-86
2022/08/20 07:48:29;;;;;;;7.30;2.80;;;22.20;99.90;;;;;;5062369;28;20016;-85
2022/08/20 07:50:57;;;;;;;9.85;2.97;;;22.20;99.90;;;;;;5077836;28;20032;-85
2022/08/20 07:53:24;;;;;;;9.27;2.97;;;22.20;99.90;;;;;;5041861;28;20067;-85
2022/08/20 07:55:49;;;;;;;5.93;2.40;;;22.20;99.90;;;;;;5057494;28;20024;-87
2022/08/20 07:58:18;;;;;;;7.35;2.90;;;22.20;99.90;;;;;;5075823;28;20535;-86
2022/08/20 08:00:45;;;;;;;7.22;2.67;;;22.30;99.90;;;;;;5075907;28;20020;-85
2022/08/20 08:03:11;;;;;;;7.95;2.50;;;22.30;99.90;;;;;;5058199;28;20498;-86
2022/08/20 08:05:39;;;;;;;6.93;2.88;;;22.30;99.90;;;;;;5058387;28;20029;-85
2022/08/20 08:08:10;;;;;;;5.82;2.83;;;22.40;99.90;;;;;;5075574;28;20096;-85
2022/08/20 08:10:39;;;;;;;7.25;2.80;;;22.40;99.90;;;;;;5038457;28;20032;-85
2022/08/20 08:13:07;;;;;;;9.50;3.50;;;22.40;99.90;;;;;;5037894;28;20032;-86
2022/08/20 08:15:39;;;;;;;6.72;3.00;;;22.40;99.90;;;;;;5038030;28;20057;-87
2022/08/20 08:18:13;;;;;;;11.07;3.42;;;22.40;99.90;;;;;;5041573;28;20468;-86
2022/08/20 08:20:42;;;;;;;7.55;3.10;;;22.50;99.90;;;;;;5057315;28;20067;-87
2022/08/20 08:23:11;;;;;;;6.38;2.50;;;22.50;99.90;;;;;;5073917;28;20052;-86
2022/08/20 08:25:41;;;;;;;7.38;2.78;;;22.60;99.90;;;;;;5056509;28;20077;-88
2022/08/20 08:28:07;;;;;;;6.03;2.78;;;22.60;99.90;;;;;;5074724;28;20499;-85
2022/08/20 08:30:33;;;;;;;5.93;2.30;;;22.70;99.90;;;;;;5060965;28;20021;-87
2022/08/20 08:35:45;;;;;;;6.25;2.63;;;22.70;99.90;;;;;;5072127;28;20055;-86
2022/08/20 08:38:11;;;;;;;7.88;2.60;;;22.80;99.90;;;;;;5061017;28;20036;-86
2022/08/20 08:40:37;;;;;;;6.53;2.88;;;22.80;99.90;;;;;;5107660;28;20039;-86
2022/08/20 08:43:03;;;;;;;8.88;2.53;;;22.90;99.90;;;;;;5048383;28;20028;-90
2022/08/20 08:45:44;;;;;;;8.35;2.95;;;22.90;99.90;;;;;;5068390;28;20023;-89
2022/08/20 08:48:16;;;;;;;7.82;2.80;;;23.00;99.90;;;;;;5066967;28;20095;-86
2022/08/20 08:50:49;;;;;;;6.22;2.30;;;23.00;99.90;;;;;;5081925;28;20047;-86
2022/08/20 08:53:25;;;;;;;5.03;2.10;;;23.10;99.90;;;;;;5112096;28;20024;-85
2022/08/20 08:55:50;;;;;;;7.70;2.60;;;23.10;99.90;;;;;;5061937;28;20025;-87
2022/08/20 08:58:16;;;;;;;6.85;2.70;;;23.20;99.90;;;;;;5025509;28;20068;-86
2022/08/20 09:00:43;;;;;;;9.65;2.72;;;23.30;99.90;;;;;;5063930;28;20086;-86
2022/08/20 09:03:23;;;;;;;11.30;2.47;;;23.30;99.90;;;;;;5090927;28;20020;-85
2022/08/20 09:05:57;;;;;;;6.97;2.50;;;23.40;99.90;;;;;;5119901;28;20051;-84
2022/08/20 09:08:27;;;;;;;5.82;2.28;;;23.40;99.90;;;;;;5091250;28;20029;-84
2022/08/20 09:10:54;;;;;;;7.82;2.38;;;23.50;99.90;;;;;;5115080;28;20031;-89
2022/08/20 09:13:26;;;;;;;9.70;3.33;;;23.50;99.90;;;;;;5134650;28;20028;-92
2022/08/20 09:15:51;;;;;;;10.35;3.13;;;23.60;99.90;;;;;;5125813;28;20088;-85
2022/08/20 09:18:17;;;;;;;8.98;2.85;;;23.60;99.90;;;;;;5085258;28;20036;-80
2022/08/20 09:20:43;;;;;;;7.95;3.17;;;23.70;99.80;;;;;;5080636;28;20020;-84
2022/08/20 09:23:08;;;;;;;6.75;2.63;;;23.80;99.40;;;;;;5083477;28;20065;-87
2022/08/20 09:25:34;;;;;;;7.25;2.53;;;23.90;99.00;;;;;;5115984;28;20054;-87
2022/08/20 09:28:00;;;;;;;9.50;2.50;;;23.90;98.60;;;;;;5047305;28;20447;-91
2022/08/20 09:30:26;;;;;;;8.88;2.33;;;23.90;98.40;;;;;;5064042;28;20020;-92
2022/08/20 09:32:51;;;;;;;5.13;2.22;;;23.90;97.70;;;;;;5100223;28;20024;-85
2022/08/20 09:35:17;;;;;;;7.72;2.60;;;24.00;97.20;;;;;;5068590;28;20047;-87
2022/08/20 09:37:43;;;;;;;10.75;3.47;;;24.00;97.10;;;;;;5034839;28;20084;-86
2022/08/20 09:40:09;;;;;;;8.15;3.10;;;24.00;96.90;;;;;;5075727;28;20024;-88
2022/08/20 09:42:36;;;;;;;6.00;2.03;;;24.10;96.90;;;;;;5067275;28;20089;-86
2022/08/20 09:45:02;;;;;;;9.30;2.85;;;24.10;96.30;;;;;;5093614;28;20040;-86
2022/08/20 09:47:28;;;;;;;7.50;2.70;;;24.10;95.90;;;;;;5029044;28;20029;-88
2022/08/20 09:49:54;;;;;;;7.10;2.40;;;24.10;96.20;;;;;;5087569;28;20021;-85
2022/08/20 09:52:26;;;;;;;5.50;2.15;;;24.20;96.10;;;;;;5109955;28;20012;-88
2022/08/20 09:54:56;;;;;;;7.93;2.40;;;24.20;96.00;;;;;;5099396;28;20013;-87
2022/08/20 09:57:23;;;;;;;7.32;2.28;;;24.30;95.80;;;;;;5083743;28;20085;-85
2022/08/20 10:00:00;;;;;;;8.27;2.65;;;24.40;95.50;;;;;;5078821;28;20027;-90
2022/08/20 10:02:28;;;;;;;8.65;2.85;;;24.40;95.30;;;;;;5078332;28;20017;-88
2022/08/20 10:04:53;;;;;;;7.38;2.50;;;24.50;94.30;;;;;;5078938;28;20035;-84
2022/08/20 10:07:19;;;;;;;8.40;2.30;;;24.50;93.40;;;;;;5093880;28;20021;-85
2022/08/20 10:09:45;;;;;;;5.50;2.15;;;24.60;92.60;;;;;;5051072;28;20090;-88
2022/08/20 10:12:11;;;;;;;7.35;2.05;;;24.60;92.70;;;;;;5082432;28;20108;-87
2022/08/20 10:14:36;;;;;;;9.98;2.60;;;24.60;92.50;;;;;;5063337;28;20464;-85
2022/08/20 10:17:02;;;;;;;10.02;2.35;;;24.70;91.10;;;;;;5094145;28;20382;-85
2022/08/20 10:19:30;;;;;;;6.13;1.77;;;24.70;90.40;;;;;;5095652;28;20016;-85
2022/08/20 10:21:57;;;;;;;8.68;2.00;;;24.70;90.20;;;;;;5047739;28;20052;-85
2022/08/20 10:24:24;;;;;;;11.50;2.72;;;24.70;89.40;;;;;;5061699;28;20036;-85
2022/08/20 10:26:49;;;;;;;7.32;2.10;;;24.70;88.90;;;;;;5058901;28;20495;-86
2022/08/20 10:29:16;;;;;;;7.15;2.08;;;24.80;88.80;;;;;;5055742;28;20025;-86
2022/08/20 10:31:42;;;;;;;7.35;1.92;;;24.80;90.00;;;;;;5038572;28;20032;-86
2022/08/20 10:34:08;;;;;;;8.55;2.53;;;24.90;90.10;;;;;;5061495;28;20063;-86
2022/08/20 10:36:33;;;;;;;9.90;2.47;;;24.90;89.90;;;;;;5074100;28;20071;-78
2022/08/20 10:38:59;;;;;;;7.82;2.40;;;25.00;89.80;;;;;;5092600;28;20460;-78
2022/08/20 10:41:24;;;;;;;7.18;2.20;;;25.10;89.10;;;;;;5057479;28;20494;-77
2022/08/20 10:43:50;;;;;;;6.25;2.10;;;25.10;88.40;;;;;;5072634;28;20039;-78
2022/08/20 10:46:16;;;;;;;7.85;2.15;;;25.30;88.30;;;;;;5052525;28;20025;-88
2022/08/20 10:48:42;;;;;;;8.25;2.40;;;25.30;89.00;;;;;;5046202;28;20048;-89
2022/08/20 10:51:07;;;;;;;7.63;1.70;;;25.40;88.30;;;;;;5070934;28;20115;-87
2022/08/20 10:53:33;;;;;;;8.02;1.88;;;25.50;87.40;;;;;;5042124;28;20118;-88
2022/08/20 10:55:59;;;;;;;8.18;2.20;;;25.50;84.90;;;;;;5061637;28;20376;-86
2022/08/20 10:58:26;;;;;;;9.52;2.67;;;25.60;84.70;;;;;;5057559;28;20044;-87
2022/08/20 11:00:52;;;;;;;4.90;1.63;;;25.70;84.00;;;;;;5062009;28;20071;-86
2022/08/20 11:03:18;;;;;;;10.48;2.45;;;25.70;83.50;;;;;;5047235;28;20051;-88
2022/08/20 11:05:44;;;;;;;11.57;2.03;;;25.80;84.00;;;;;;5070206;28;20028;-88
2022/08/20 11:08:09;;;;;;;6.60;2.47;;;25.90;84.10;;;;;;5040815;28;20124;-89
2022/08/20 11:10:37;;;;;;;7.97;2.55;;;25.90;82.80;;;;;;5062792;28;20032;-86
2022/08/20 11:13:05;;;;;;;6.80;1.75;;;26.00;79.20;;;;;;5059098;28;20368;-86
2022/08/20 11:15:41;;;;;;;8.45;2.00;;;26.00;75.30;;;;;;5060112;28;20024;-87
2022/08/20 11:18:08;;;;;;;11.00;2.75;;;26.00;74.60;;;;;;5076049;28;20119;-87
2022/08/20 11:20:34;;;;;;;6.57;1.75;;;26.00;73.80;;;;;;5076980;28;20141;-88
2022/08/20 11:23:01;;;;;;;7.40;1.95;;;26.10;74.70;;;;;;5061227;28;20058;-88
2022/08/20 11:25:27;;;;;;;6.13;1.63;;;26.10;74.50;;;;;;5058064;28;20020;-88
2022/08/20 11:27:54;;;;;;;7.03;2.28;;;26.20;73.70;;;;;;5025540;28;20032;-87
2022/08/20 11:30:29;;;;;;;4.53;1.83;;;26.30;72.80;;;;;;5062391;28;20016;-86
2022/08/20 11:32:56;;;;;;;7.25;2.30;;;26.30;72.50;;;;;;5057650;28;20028;-85
2022/08/20 11:35:23;;;;;;;10.18;2.58;;;26.40;70.50;;;;;;5059702;28;20024;-90
2022/08/20 11:37:50;;;;;;;6.50;2.00;;;26.50;69.20;;;;;;5058850;28;20021;-89
2022/08/20 11:40:16;;;;;;;11.82;2.55;;;26.50;69.50;;;;;;5063493;28;20154;-85
2022/08/20 11:42:41;;;;;;;9.15;2.40;;;26.50;67.20;;;;;;5045326;28;20096;-85
2022/08/20 11:45:08;;;;;;;5.68;1.75;;;26.60;67.40;;;;;;5059540;28;20037;-85
2022/08/20 11:47:36;;;;;;;7.85;2.20;;;26.70;67.00;;;;;;5044252;28;20024;-85
2022/08/20 11:50:05;;;;;;;7.43;2.05;;;26.70;65.00;;;;;;5049454;28;20024;-85
2022/08/20 11:52:31;;;;;;;7.15;1.80;;;26.80;65.30;;;;;;5056823;28;20047;-88
2022/08/20 11:54:58;;;;;;;9.93;2.13;;;26.90;65.40;;;;;;5040225;28;20456;-86
2022/08/20 11:57:30;;;;;;;8.07;2.22;;;26.90;64.90;;;;;;5079413;28;20028;-86
2022/08/20 11:59:58;;;;;;;8.82;2.30;;;27.00;63.70;;;;;;5082125;28;20468;-85
2022/08/20 12:02:24;;;;;;;5.28;1.70;;;27.10;63.00;;;;;;5077738;28;20083;-86
2022/08/20 12:04:50;;;;;;;8.55;2.28;;;27.20;64.10;;;;;;5057676;28;20024;-86
2022/08/20 12:07:19;;;;;;;5.95;2.00;;;27.20;64.10;;;;;;5042257;28;20024;-85
2022/08/20 12:09:45;;;;;;;7.97;2.55;;;27.20;61.10;;;;;;5057563;28;20032;-85
2022/08/20 12:12:12;;;;;;;8.77;2.38;;;27.20;60.60;;;;;;5054227;28;20047;-85
2022/08/20 12:14:38;;;;;;;10.55;2.50;;;27.20;61.90;;;;;;5057986;28;20025;-86
2022/08/20 12:17:22;;;;;;;5.07;1.98;;;27.20;62.00;;;;;;5048871;28;20036;-85
2022/08/20 12:19:49;;;;;;;7.25;1.83;;;27.30;62.80;;;;;;5095949;28;20021;-85
2022/08/20 12:22:15;;;;;;;7.35;2.25;;;27.40;63.10;;;;;;5054696;28;20500;-86
2022/08/20 12:24:41;;;;;;;7.93;2.00;;;27.40;62.30;;;;;;5058230;28;20068;-87
2022/08/20 12:27:22;;;;;;;7.55;1.92;;;27.40;62.30;;;;;;5078858;28;20059;-86
2022/08/20 12:29:51;;;;;;;7.55;2.40;;;27.50;62.00;;;;;;5052880;28;20027;-78
2022/08/20 12:32:21;;;;;;;6.73;2.07;;;27.50;62.10;;;;;;5056516;28;20028;-79
2022/08/20 12:34:47;;;;;;;5.75;1.73;;;27.50;61.60;;;;;;5056214;28;20275;-79
2022/08/20 12:37:15;;;;;;;4.63;1.52;;;27.50;60.90;;;;;;5062605;28;20024;-80
2022/08/20 12:39:44;;;;;;;7.65;1.83;;;27.60;60.20;;;;;;5062996;28;20019;-79
2022/08/20 12:42:11;;;;;;;7.78;2.42;;;27.60;59.10;;;;;;5074044;28;20020;-80
2022/08/20 12:44:37;;;;;;;7.28;2.60;;;27.70;59.20;;;;;;5058732;28;20455;-79
2022/08/20 12:47:07;;;;;;;9.68;2.25;;;27.70;59.20;;;;;;5065974;28;20020;-80
2022/08/20 12:49:33;;;;;;;7.45;2.05;;;27.80;59.10;;;;;;5055944;28;20166;-80
2022/08/20 12:51:59;;;;;;;8.05;3.00;;;27.80;57.90;;;;;;5081887;28;20031;-80
2022/08/20 12:54:25;;;;;;;7.40;2.33;;;27.90;58.10;;;;;;5077997;28;20021;-82
2022/08/20 12:56:51;;;;;;;6.18;1.75;;;27.90;58.10;;;;;;5084872;28;20024;-79
2022/08/20 12:59:17;;;;;;;5.13;1.90;;;28.00;57.90;;;;;;5044674;28;20067;-79
2022/08/20 13:01:43;;;;;;;6.15;2.05;;;28.00;57.90;;;;;;5058460;28;20021;-81
2022/08/20 13:04:09;;;;;;;5.55;1.77;;;28.10;58.40;;;;;;5062107;28;20020;-77
2022/08/20 13:06:34;;;;;;;9.93;2.35;;;28.20;58.20;;;;;;5065874;28;20064;-82
2022/08/20 13:09:00;;;;;;;4.32;1.92;;;28.20;57.10;;;;;;5070779;28;20032;-80
2022/08/20 13:11:26;;;;;;;76.40;6.47;;;28.20;56.40;;;;;;5059907;28;20036;-82
2022/08/20 13:13:51;;;;;;;14.90;2.88;;;28.30;56.10;;;;;;5071430;28;20016;-82
2022/08/20 13:16:17;;;;;;;5.80;2.25;;;28.30;56.90;;;;;;5059637;28;20412;-82